• Join FlightAware (Why Join?)
  • Login
  • US Flag 
04:30PM EST


 

Airport Tracker/Info


-or-


 

Live Flight TrackerFlight Track Log ✈ N363NH ✈ 22-Nov-2013 ✈ KBFI - KTUS

Flight Track Log - Related Links

Times and Time Zones

All times are in EST time to prevent confusion due to time zone crossing. See the N363NH flight status page for this flight to view local times or setup timezone preferences in your user account.

Time Position Orientation Groundspeed Altitude Reporting Facility
EST Latitude Longitude Course Direction KTS MPH feet Rate Location/Type
01:10PM 47.5453 -122.3153 327° Northwest 174 200 1,100  Level Seattle Center
01:11PM 47.6042 -122.3714 327° Northwest 240 276 4,200 3,120 Climbing Seattle Center
01:12PM 47.6119 -122.4444 279° West 259 298 7,000 3,360 Climbing Seattle Center
01:13PM 47.5444 -122.4647 191° South 286 329 10,200 2,880 Climbing Seattle Center
01:14PM 47.4644 -122.4258 162° South 308 354 13,000 2,580 Climbing Seattle Center
01:15PM 47.3717 -122.3750 160° South 335 386 15,600 2,400 Climbing Seattle Center
01:16PM 47.2814 -122.3286 161° South 356 410 18,000 2,160 Climbing Seattle Center
01:17PM 47.1981 -122.2411 144° Southeast 372 428 20,100 2,040 Climbing Seattle Center
01:18PM 47.1128 -122.1422 142° Southeast 389 448 22,200 1,920 Climbing Seattle Center
01:19PM 47.0233 -122.0406 142° Southeast 405 466 24,100 1,860 Climbing Seattle Center
01:20PM 46.9300 -121.9325 142° Southeast 424 488 26,000 1,680 Climbing Seattle Center
01:21PM 46.8344 -121.8250 142° Southeast 433 498 27,600 1,320 Climbing Seattle Center
01:22PM 46.7350 -121.7106 142° Southeast 452 520 28,700 1,560 Climbing Seattle Center
01:23PM 46.6242 -121.5856 142° Southeast 459 528 30,800 1,860 Climbing Seattle Center
01:24PM 46.5242 -121.4728 142° Southeast 458 527 32,600 1,680 Climbing Seattle Center
01:25PM 46.4233 -121.3606 142° Southeast 456 525 34,300 1,620 Climbing Seattle Center
01:26PM 46.3236 -121.2497 142° Southeast 455 524 36,000 1,620 Climbing Seattle Center
01:27PM 46.2242 -121.1400 143° Southeast 452 520 37,700 1,500 Climbing Seattle Center
01:29PM 46.1222 -121.0347 144° Southeast 453 521 39,100 1,440 Climbing Seattle Center
01:30PM 45.9864 -120.9372 153° Southeast 456 525 40,700 900 Climbing Seattle Center
01:31PM 45.8728 -120.8525 153° Southeast 459 528 41,000 120 Climbing Seattle Center
01:32PM 45.7517 -120.7611 152° Southeast 485 558 41,000  Level Seattle Center
01:33PM 45.6286 -120.6692 152° Southeast 497 572 41,000  Level Seattle Center
01:34PM 45.5033 -120.5744 152° Southeast 509 586 41,000  Level Seattle Center
01:35PM 45.3792 -120.4842 153° Southeast 506 582 41,000  Level Seattle Center
01:36PM 45.2569 -120.3950 153° Southeast 498 573 41,000  Level Seattle Center
01:37PM 45.1372 -120.3061 152° Southeast 492 566 41,000  Level Seattle Center
01:38PM 45.0189 -120.2194 153° Southeast 488 562 41,000  Level Seattle Center
01:39PM 44.8808 -120.1183 153° Southeast 480 552 41,000  Level Seattle Center
01:40PM 44.7664 -120.0361 153° Southeast 474 545 41,000  Level Seattle Center
01:41PM 44.6506 -119.9525 153° Southeast 474 545 41,000  Level Seattle Center
01:42PM 44.5331 -119.8689 153° Southeast 476 548 41,000 240 Level Seattle Center
01:43PM 44.4142 -119.7836 153° Southeast 480 552 41,600 480 Climbing Seattle Center
01:44PM 44.2967 -119.6989 153° Southeast 479 551 42,100 480 Climbing Seattle Center
01:45PM 44.1781 -119.6172 154° Southeast 478 550 42,600 420 Climbing Seattle Center
01:46PM 44.0353 -119.5169 153° Southeast 476 548 43,000 180 Climbing Seattle Center
01:47PM 43.9189 -119.4356 153° Southeast 476 548 43,000  Level Seattle Center
01:48PM 43.8008 -119.3539 153° Southeast 474 545 43,000  Level Seattle Center
01:49PM 43.6828 -119.2728 154° Southeast 474 545 43,000  Level Seattle Center
01:50PM 43.5656 -119.1925 154° Southeast 473 544 43,000  Level Seattle Center
01:51PM 43.4483 -119.1117 153° Southeast 470 541 43,000  Level Seattle Center
01:52PM 43.3317 -119.0306 153° Southeast 471 542 43,000  Level Seattle Center
01:53PM 43.2083 -118.9478 154° Southeast 464 534 43,000  Level Seattle Center
01:54PM 43.0922 -118.8694 154° Southeast 466 536 43,000  Level Seattle Center
01:55PM 42.9750 -118.7897 154° Southeast 472 543 43,000  Level Seattle Center
01:56PM 42.8603 -118.7111 153° Southeast 465 535 43,000  Level Seattle Center
01:57PM 42.7219 -118.6211 154° Southeast 462 532 43,000  Level Seattle Center
01:58PM 42.6067 -118.5425 153° Southeast 464 534 43,000  Level Seattle Center
01:59PM 42.4858 -118.4636 154° Southeast 462 532 43,000  Level Seattle Center
02:00PM 42.3758 -118.3919 154° Southeast 460 529 43,000  Level Seattle Center
02:01PM 42.3214 -118.3558 154° Southeast 457 526 43,000  Level Salt Lake Center
02:02PM 42.2128 -118.2831 154° Southeast 455 524 43,000  Level Salt Lake Center
02:03PM 42.0833 -118.1981 154° Southeast 460 529 43,000  Level Salt Lake Center
02:04PM 41.9731 -118.1275 155° Southeast 460 529 43,000  Level Salt Lake Center
02:05PM 41.8444 -118.0436 154° Southeast 460 529 43,000  Level Salt Lake Center
02:06PM 41.7506 -117.9419 141° Southeast 451 519 43,000  Level Salt Lake Center
02:07PM 41.6497 -117.8097 136° Southeast 453 521 43,000  Level Salt Lake Center
02:08PM 41.5611 -117.6986 137° Southeast 456 525 43,000  Level Salt Lake Center
02:09PM 41.4586 -117.5681 136° Southeast 455 524 43,000  Level Salt Lake Center
02:10PM 41.3706 -117.4578 137° Southeast 454 522 43,000  Level Salt Lake Center
02:11PM 41.2689 -117.3297 137° Southeast 451 519 43,000  Level Salt Lake Center
02:12PM 41.1811 -117.2175 136° Southeast 454 522 43,000  Level Salt Lake Center
02:13PM 41.0919 -117.1081 137° Southeast 455 524 43,000  Level Salt Lake Center
02:14PM 40.9883 -116.9786 137° Southeast 456 525 43,000  Level Salt Lake Center
02:15PM 40.8986 -116.8681 137° Southeast 459 528 43,000  Level Salt Lake Center
02:16PM 40.7939 -116.7394 137° Southeast 457 526 43,000  Level Salt Lake Center
02:17PM 40.7042 -116.6297 137° Southeast 456 525 43,000  Level Salt Lake Center
02:18PM 40.6011 -116.5008 136° Southeast 454 522 43,000  Level Salt Lake Center
02:19PM 40.5111 -116.3917 137° Southeast 455 524 43,000  Level Salt Lake Center
02:20PM 40.4208 -116.2842 138° Southeast 454 522 43,000  Level Salt Lake Center
02:21PM 40.3169 -116.1583 137° Southeast 453 521 43,000  Level Salt Lake Center
02:22PM 40.2283 -116.0500 137° Southeast 453 521 43,000  Level Salt Lake Center
02:23PM 40.1256 -115.9261 137° Southeast 449 517 43,000  Level Salt Lake Center
02:24PM 40.0378 -115.8206 137° Southeast 447 514 43,000  Level Salt Lake Center
02:25PM 39.9347 -115.6961 137° Southeast 451 519 43,000  Level Salt Lake Center
02:26PM 39.8436 -115.5936 139° Southeast 450 518 43,000  Level Salt Lake Center
02:28PM 39.7408 -115.4728 138° Southeast 446 513 43,000  Level Salt Lake Center
02:29PM 39.6550 -115.3664 136° Southeast 444 511 43,000  Level Salt Lake Center
02:30PM 39.5661 -115.2650 139° Southeast 445 512 43,000  Level Salt Lake Center
02:31PM 39.4642 -115.1444 138° Southeast 443 510 43,000  Level Salt Lake Center
02:32PM 39.3742 -115.0456 140° Southeast 442 509 43,000  Level Salt Lake Center
02:33PM 39.2736 -114.9278 138° Southeast 438 504 43,000  Level Salt Lake Center
02:34PM 39.1850 -114.8286 139° Southeast 438 504 43,000  Level Salt Lake Center
02:35PM 39.0861 -114.7122 138° Southeast 438 504 43,000  Level Salt Lake Center
02:36PM 38.9969 -114.6094 138° Southeast 434 499 43,000  Level Salt Lake Center
02:37PM 38.9067 -114.5064 138° Southeast 435 501 43,000  Level Salt Lake Center
02:38PM 38.8164 -114.4039 138° Southeast 435 501 43,000  Level Salt Lake Center
02:39PM 38.7089 -114.2806 138° Southeast 434 499 43,000  Level Salt Lake Center
02:40PM 38.6172 -114.1803 139° Southeast 434 499 43,000  Level Salt Lake Center
02:41PM 38.5281 -114.0794 138° Southeast 430 495 43,000  Level Salt Lake Center
02:42PM 38.4400 -113.9806 139° Southeast 425 489 43,000  Level Salt Lake Center
02:43PM 38.3525 -113.8839 139° Southeast 419 482 43,000  Level Salt Lake Center
02:44PM 38.2647 -113.7856 139° Southeast 419 482 43,000  Level Salt Lake Center
02:45PM 38.1772 -113.6892 139° Southeast 418 481 43,000  Level Salt Lake Center
02:46PM 38.0725 -113.5761 140° Southeast 414 476 43,000  Level Salt Lake Center
02:47PM 37.9847 -113.4800 139° Southeast 417 480 43,000  Level Salt Lake Center
02:48PM 37.8944 -113.3892 142° Southeast 416 479 43,000  Level Salt Lake Center
02:49PM 37.7869 -113.3508 164° South 403 464 43,000  Level Salt Lake Center
02:50PM 37.6797 -113.3175 166° South 401 461 43,000  Level Salt Lake Center
02:51PM 37.5514 -113.2778 166° South 400 460 43,000  Level Salt Lake Center
02:52PM 37.4219 -113.2381 166° South 402 463 43,000  Level Los Angeles Center
02:53PM 37.3156 -113.2039 166° South 398 458 43,000  Level Los Angeles Center
02:55PM 37.2075 -113.1703 166° South 401 461 43,000  Level Los Angeles Center
02:56PM 37.0992 -113.1367 166° South 402 463 43,000  Level Los Angeles Center
02:57PM 36.9911 -113.1025 166° South 402 463 43,000  Level Los Angeles Center
02:58PM 36.8594 -113.0625 166° South 404 465 43,000  Level Los Angeles Center
02:59PM 36.7497 -113.0297 167° South 406 467 43,000  Level Los Angeles Center
03:00PM 36.6392 -112.9958 166° South 407 468 43,000  Level Los Angeles Center
03:01PM 36.5286 -112.9628 166° South 410 472 43,000  Level Los Angeles Center
03:02PM 36.4200 -112.9286 166° South 407 468 43,000  Level Los Angeles Center
03:03PM 36.2894 -112.8892 166° South 404 465 43,000  Level Los Angeles Center
03:05PM 36.0856 -112.8292 167° South 400 460 43,000  Level Albuquerque Center
03:06PM 35.9778 -112.7969 166° South 400 460 43,000  Level Albuquerque Center
03:07PM 35.8700 -112.7647 166° South 398 458 43,000  Level Albuquerque Center
03:08PM 35.7417 -112.7269 167° South 397 457 43,000  Level Los Angeles Center
03:09PM 35.6203 -112.6906 166° South 398 458 43,000  Level Los Angeles Center
03:10PM 35.5119 -112.6594 167° South 398 458 43,000  Level Los Angeles Center
03:11PM 35.4050 -112.6275 166° South 397 457 43,000  Level Los Angeles Center
03:12PM 35.3275 -112.6033 166° South 398 458 43,000  Level Albuquerque Center
03:13PM 35.1972 -112.5658 167° South 398 458 43,000  Level Albuquerque Center
03:14PM 35.0897 -112.5347 167° South 396 456 43,000  Level Albuquerque Center
03:15PM 34.9814 -112.5031 167° South 398 458 43,000 -240 Level Albuquerque Center
03:16PM 34.8728 -112.4722 167° South 399 459 42,600 -600 Descending Albuquerque Center
03:17PM 34.7628 -112.4397 166° South 405 466 41,800 -900 Descending Albuquerque Center
03:18PM 34.6525 -112.4086 167° South 407 468 40,800 -1,020 Descending Albuquerque Center
03:19PM 34.5433 -112.3769 167° South 405 466 39,800 -840 Descending Albuquerque Center
03:20PM 34.4208 -112.3406 166° South 404 465 39,200 -420 Descending Albuquerque Center
03:21PM 34.3128 -112.3097 167° South 402 463 39,000 -660 Descending Albuquerque Center
03:22PM 34.2072 -112.2792 167° South 395 455 37,900 -1,740 Descending Albuquerque Center
03:23PM 34.1033 -112.2497 167° South 385 443 35,600 -2,580 Descending Albuquerque Center
03:24PM 33.9922 -112.2167 166° South 346 398 32,700 -2,280 Descending Albuquerque Center
03:25PM 33.9061 -112.1919 167° South 324 373 31,000 -840 Descending Albuquerque Center
03:26PM 33.8156 -112.1672 167° South 334 384 31,000  Level Albuquerque Center
03:27PM 33.7233 -112.1417 167° South 341 392 31,000  Level Albuquerque Center
03:28PM 33.6322 -112.1153 166° South 340 391 31,000  Level Albuquerque Center
03:29PM 33.5225 -112.0844 167° South 339 390 31,000  Level Albuquerque Center
03:30PM 33.4300 -112.0594 167° South 341 392 31,000  Level Albuquerque Center
03:32PM 33.3383 -112.0342 167° South 340 391 31,000 -360 Level Albuquerque Center
03:33PM 33.2447 -112.0078 167° South 343 395 30,300 -1,020 Descending Albuquerque Center
03:34PM 33.1461 -111.9797 167° South 357 411 28,900 -1,500 Descending Albuquerque Center
03:35PM 33.0469 -111.9519 167° South 366 421 27,200 -2,040 Descending Albuquerque Center
03:36PM 32.9300 -111.9197 167° South 360 414 24,800 -2,280 Descending Albuquerque Center
03:37PM 32.8342 -111.8669 155° Southeast 383 441 22,500 -2,340 Descending Albuquerque Center
03:38PM 32.7442 -111.7897 144° Southeast 399 459 20,100 -2,160 Descending Albuquerque Center
03:39PM 32.6628 -111.7211 145° Southeast 366 421 18,000 -2,220 Descending Albuquerque Center
03:39PM 32.6089 -111.6825 149° Southeast 356 410 16,700 -1,980 Descending Albuquerque Center
03:40PM 32.5833 -111.6586 142° Southeast 351 404 16,000 -1,980 Descending Albuquerque Center
03:40PM 32.5381 -111.6128 140° Southeast 339 390 14,700 -1,920 Descending Albuquerque Center
03:41PM 32.5194 -111.5831 127° Southeast 338 389 14,100 -660 Descending Albuquerque Center
03:41PM 32.4753 -111.5308 135° Southeast 309 356 14,000 -120 Descending Albuquerque Center
03:42PM 32.4481 -111.4969 134° Southeast 309 356 14,000  Level Albuquerque Center
03:42PM 32.4094 -111.4550 137° Southeast 309 356 14,000 -300 Level Albuquerque Center
03:43PM 32.3847 -111.4247 134° Southeast 313 360 13,700 -960 Descending Albuquerque Center
03:43PM 32.3497 -111.3878 138° Southeast 308 354 13,100 -1,080 Descending Albuquerque Center
03:44PM 32.3292 -111.3589 130° Southeast 292 336 12,600 -1,020 Descending Albuquerque Center
03:44PM 32.2942 -111.3217 138° Southeast 280 322 12,100 -1,020 Descending Albuquerque Center
03:45PM 32.2750 -111.2969 133° Southeast 275 316 11,600 -1,020 Descending Albuquerque Center
03:45PM 32.2469 -111.2664 137° Southeast 246 283 11,100 -960 Descending Albuquerque Center
03:46PM 32.2283 -111.2436 134° Southeast 245 282 10,600 -1,140 Descending Albuquerque Center
03:46PM 32.2003 -111.2133 138° Southeast 233 268 10,000 -1,140 Descending Albuquerque Center
03:47PM 32.1822 -111.1919 135° Southeast 232 267 9,500 -1,380 Descending Albuquerque Center
03:48PM 32.1458 -111.1525 137° Southeast 230 265 8,500 -1,260 Descending Albuquerque Center
03:48PM 32.1369 -111.1392 128° Southeast 230 265 8,200 -540 Descending Albuquerque Center
03:49PM 32.1025 -111.1061 141° Southeast 218 251 8,000 -240 Descending Albuquerque Center
03:49PM 32.0861 -111.0792 126° Southeast 223 257 8,000  Level Albuquerque Center
03:50PM 32.0589 -111.0575 146° Southeast 202 232 8,000 -240 Level Albuquerque Center
03:50PM 32.0461 -111.0358 125° Southeast 211 243 7,800 -540 Descending Albuquerque Center
03:51PM 32.0181 -111.0133 146° Southeast 200 230 7,500 -540 Descending Albuquerque Center
03:51PM 32.0092 -110.9911 115° Southeast 200 230 7,300 -660 Descending Albuquerque Center
03:52PM 31.9992 -110.9503 106° East 201 231 6,900 -600 Descending Albuquerque Center
03:52PM 31.9964 -110.9267 98° East 199 229 6,700 -660 Descending Albuquerque Center
03:53PM 31.9853 -110.8789 105° East 209 241 6,200 -720 Descending Albuquerque Center
03:53PM 31.9833 -110.8600 97° East 204 235 6,000 -900 Descending Albuquerque Center
03:54PM 31.9878 -110.8153 83° East 197 227 5,300 -660 Descending Albuquerque Center
03:55PM 32.0225 -110.8283 342° North 189 217 5,000 -420 Descending Albuquerque Center
03:56PM 32.0592 -110.8739 314° West 194 223 4,500 -840 Descending Albuquerque Center
03:57PM 32.0925 -110.9125 316° Northwest 138 159 3,300 -1,080 Descending Albuquerque Center